createdAt,value
2022-09-10T00:00:58.169Z,6.35
2022-09-10T00:01:58.443Z,6.27
2022-09-10T00:02:57.922Z,6.17
2022-09-10T00:03:58.603Z,6.19
2022-09-10T00:04:57.813Z,6.22
2022-09-10T00:05:57.833Z,6.06
2022-09-10T00:06:57.864Z,6.1
2022-09-10T00:07:57.817Z,6.01
2022-09-10T00:08:58.577Z,6.01
2022-09-10T00:09:57.877Z,6.11
2022-09-10T00:11:02.882Z,6.24
2022-09-10T00:11:59.109Z,6.22
2022-09-10T00:12:59.077Z,6.37
2022-09-10T00:14:00.017Z,6.3
2022-09-10T00:14:59.102Z,6.03
2022-09-10T00:16:01.114Z,6.08
2022-09-10T00:16:59.160Z,6.03
2022-09-10T00:17:59.273Z,6
2022-09-10T00:19:00.676Z,6.07
2022-09-10T00:19:59.209Z,6
2022-09-10T00:20:59.432Z,5.91
2022-09-10T00:21:59.235Z,5.88
2022-09-10T00:22:59.275Z,5.84
2022-09-10T00:24:00.623Z,5.87
2022-09-10T00:24:59.297Z,5.88
2022-09-10T00:25:59.302Z,5.83
2022-09-10T00:26:59.310Z,5.93
2022-09-10T00:27:59.393Z,5.77
2022-09-10T00:28:59.352Z,5.9
2022-09-10T00:29:59.349Z,5.82
2022-09-10T00:30:59.395Z,5.82
2022-09-10T00:31:59.424Z,5.71
2022-09-10T00:32:59.410Z,5.64
2022-09-10T00:34:00.453Z,5.48
2022-09-10T00:34:59.442Z,5.46
2022-09-10T00:35:59.477Z,5.38
2022-09-10T00:36:59.496Z,5.54
2022-09-10T00:37:59.790Z,5.45
2022-09-10T00:39:02.325Z,5.59
2022-09-10T00:39:59.581Z,5.58
2022-09-10T00:41:03.579Z,5.48
2022-09-10T00:41:59.741Z,5.57
2022-09-10T00:42:59.833Z,5.53
2022-09-10T00:44:04.113Z,5.49
2022-09-10T00:45:01.663Z,5.35
2022-09-10T00:46:00.343Z,5.32
2022-09-10T00:47:00.325Z,5.23
2022-09-10T00:48:05.536Z,5.31
2022-09-10T00:49:03.469Z,5.49
2022-09-10T00:50:04.696Z,5.47
2022-09-10T00:51:04.646Z,5.45
2022-09-10T00:52:02.418Z,5.43
2022-09-10T00:53:03.681Z,5.44
2022-09-10T00:54:02.441Z,5.52
2022-09-10T00:55:02.432Z,5.47
2022-09-10T00:56:02.070Z,5.53
2022-09-10T00:58:06.457Z,5.41
2022-09-10T00:59:07.231Z,5.52
2022-09-10T01:00:07.060Z,5.46
2022-09-10T01:01:04.943Z,5.52
2022-09-10T01:02:04.746Z,5.48
2022-09-10T01:03:05.432Z,5.56
2022-09-10T01:04:05.988Z,5.56
2022-09-10T01:05:05.783Z,5.45
2022-09-10T01:06:05.281Z,5.52
2022-09-10T01:07:06.004Z,5.42
2022-09-10T01:08:05.130Z,5.39
2022-09-10T01:09:05.487Z,5.53
2022-09-10T01:10:13.102Z,5.52
2022-09-10T01:20:45.196Z,5.44
2022-09-10T01:28:03.820Z,5.37
2022-09-10T01:29:14.456Z,5.32
2022-09-10T01:31:11.511Z,5.15
2022-09-10T01:32:13.912Z,5.09
2022-09-10T01:35:22.367Z,5.21
2022-09-10T01:36:16.110Z,5.32
2022-09-10T01:37:17.337Z,5.12
2022-09-10T01:39:15.654Z,5.06
2022-09-10T01:40:14.933Z,5.26
2022-09-10T01:41:14.141Z,5.4
2022-09-10T01:42:14.188Z,5.26
2022-09-10T01:43:14.222Z,5.18
2022-09-10T01:45:18.866Z,5.27
2022-09-10T01:55:58.642Z,4.96
2022-09-10T01:56:59.515Z,4.99
2022-09-10T01:58:56.872Z,5.09
2022-09-10T02:02:02.459Z,4.9
2022-09-10T02:03:05.871Z,4.92
2022-09-10T02:04:06.272Z,4.83
2022-09-10T02:05:03.546Z,4.91
2022-09-10T02:06:02.988Z,4.92
2022-09-10T02:07:04.273Z,4.88
2022-09-10T02:08:07.248Z,4.93
2022-09-10T02:09:05.290Z,4.92
2022-09-10T02:10:04.657Z,4.92
2022-09-10T02:11:04.506Z,4.9
2022-09-10T02:12:03.709Z,4.81
2022-09-10T02:13:03.518Z,4.81
2022-09-10T02:14:03.522Z,4.74
2022-09-10T02:15:05.130Z,4.72
2022-09-10T02:16:05.489Z,4.77
2022-09-10T02:17:03.937Z,4.71
2022-09-10T02:18:03.822Z,4.82
2022-09-10T02:19:04.025Z,4.75
2022-09-10T02:20:08.015Z,4.72
2022-09-10T02:21:04.444Z,4.63
2022-09-10T02:22:04.438Z,4.6
2022-09-10T02:23:05.307Z,4.59
2022-09-10T02:24:06.096Z,4.65
2022-09-10T02:25:04.675Z,4.73
2022-09-10T02:26:04.459Z,4.7
2022-09-10T02:27:04.730Z,4.59
2022-09-10T02:28:05.410Z,4.61
2022-09-10T02:29:04.409Z,4.62
2022-09-10T02:30:05.845Z,4.51
2022-09-10T02:31:04.371Z,4.56
2022-09-10T02:32:05.154Z,4.6
2022-09-10T02:33:04.413Z,4.61
2022-09-10T02:34:04.420Z,4.61
2022-09-10T02:35:04.746Z,4.72
2022-09-10T02:36:04.644Z,4.63
2022-09-10T02:37:04.495Z,4.67
2022-09-10T02:38:04.500Z,4.59
2022-09-10T02:39:05.083Z,4.46
2022-09-10T02:40:04.899Z,4.4
2022-09-10T02:41:04.515Z,4.32
2022-09-10T02:42:04.899Z,4.24
2022-09-10T02:43:04.957Z,4.16
2022-09-10T02:44:04.686Z,4.13
2022-09-10T02:45:05.022Z,4.1
2022-09-10T02:46:05.154Z,4.06
2022-09-10T02:47:04.675Z,4
2022-09-10T02:48:04.708Z,3.97
2022-09-10T02:49:04.712Z,3.88
2022-09-10T02:50:05.534Z,3.82
2022-09-10T02:51:04.712Z,3.82
2022-09-10T02:52:04.766Z,3.76
2022-09-10T02:53:05.457Z,3.68
2022-09-10T02:54:04.985Z,3.66
2022-09-10T02:55:05.187Z,3.65
2022-09-10T02:56:05.198Z,3.62
2022-09-10T02:57:04.975Z,3.67
2022-09-10T02:58:04.798Z,3.66
2022-09-10T02:59:04.937Z,3.83
2022-09-10T03:00:05.734Z,3.86
2022-09-10T03:01:08.640Z,3.87
2022-09-10T03:02:04.963Z,3.86
2022-09-10T03:03:04.979Z,3.96
2022-09-10T03:04:05.084Z,4
2022-09-10T03:05:05.762Z,4.02
2022-09-10T03:06:05.461Z,4.14
2022-09-10T03:07:05.002Z,4.06
2022-09-10T03:08:05.974Z,4.08
2022-09-10T03:09:05.053Z,4.07
2022-09-10T03:10:05.384Z,4.11
2022-09-10T03:11:05.396Z,4.14
2022-09-10T03:12:05.314Z,4.18
2022-09-10T03:13:05.108Z,4.22
2022-09-10T03:14:05.221Z,4.3
2022-09-10T03:15:05.653Z,4.32
2022-09-10T03:16:05.360Z,4.32
2022-09-10T03:17:05.185Z,4.46
2022-09-10T03:18:05.356Z,4.44
2022-09-10T03:19:05.322Z,4.4
2022-09-10T03:20:05.672Z,4.44
2022-09-10T03:22:08.038Z,4.44
2022-09-10T03:23:07.922Z,4.5
2022-09-10T03:24:08.774Z,4.69
2022-09-10T03:25:08.076Z,4.69
2022-09-10T03:26:08.364Z,4.64
2022-09-10T03:27:07.952Z,4.45
2022-09-10T03:28:07.931Z,4.51
2022-09-10T03:29:07.975Z,4.55
2022-09-10T03:30:08.742Z,4.46
2022-09-10T03:31:08.104Z,4.43
2022-09-10T03:32:08.026Z,4.44
2022-09-10T03:33:08.069Z,4.42
2022-09-10T03:34:10.361Z,4.4
2022-09-10T03:35:08.412Z,4.4
2022-09-10T03:36:08.491Z,4.45
2022-09-10T03:37:08.087Z,4.43
2022-09-10T03:38:08.172Z,4.46
2022-09-10T03:39:08.223Z,4.42
2022-09-10T03:40:08.748Z,4.28
2022-09-10T03:41:08.643Z,4.32
2022-09-10T03:42:08.206Z,4.26
2022-09-10T03:43:08.172Z,4.4
2022-09-10T03:44:08.407Z,4.43
2022-09-10T03:45:08.692Z,4.43
2022-09-10T03:46:08.296Z,4.4
2022-09-10T03:47:08.282Z,4.26
2022-09-10T03:48:08.285Z,4.28
2022-09-10T03:49:08.836Z,4.34
2022-09-10T03:50:08.737Z,4.44
2022-09-10T03:51:08.338Z,4.44
2022-09-10T03:52:08.377Z,4.47
2022-09-10T03:53:08.342Z,4.45
2022-09-10T03:54:08.759Z,4.36
2022-09-10T03:55:08.881Z,4.46
2022-09-10T03:56:09.476Z,4.47
2022-09-10T03:57:08.675Z,4.55
2022-09-10T03:58:08.577Z,4.55
2022-09-10T03:59:08.435Z,4.6
2022-09-10T04:00:08.930Z,4.61
2022-09-10T04:01:08.487Z,4.74
2022-09-10T04:02:08.882Z,4.68
2022-09-10T04:03:08.721Z,4.78
2022-09-10T04:04:08.522Z,4.85
2022-09-10T04:05:09.451Z,4.77
2022-09-10T04:06:11.696Z,4.73
2022-09-10T04:07:09.668Z,4.72
2022-09-10T04:08:08.961Z,4.69
2022-09-10T04:09:08.658Z,4.82
2022-09-10T04:10:08.640Z,4.77
2022-09-10T04:11:09.238Z,4.81
2022-09-10T04:12:08.679Z,4.75
2022-09-10T04:13:08.712Z,4.73
2022-09-10T04:14:08.784Z,4.75
2022-09-10T04:15:09.114Z,4.65
2022-09-10T04:16:08.776Z,4.76
2022-09-10T04:17:08.729Z,4.71
2022-09-10T04:18:08.820Z,4.9
2022-09-10T04:19:08.904Z,4.72
2022-09-10T04:20:09.131Z,4.86
2022-09-10T04:21:08.850Z,4.74
2022-09-10T04:22:08.963Z,4.68
2022-09-10T04:23:08.873Z,4.62
2022-09-10T04:24:11.631Z,4.63
2022-09-10T04:25:08.849Z,4.69
2022-09-10T04:26:18.290Z,4.67
2022-09-10T04:27:09.945Z,4.63
2022-09-10T04:28:10.015Z,4.79
2022-09-10T04:29:09.967Z,4.79
2022-09-10T04:30:10.509Z,4.74
2022-09-10T04:31:10.550Z,4.77
2022-09-10T04:32:10.025Z,4.67
2022-09-10T04:33:10.214Z,4.81
2022-09-10T04:34:10.083Z,4.88
2022-09-10T04:35:10.681Z,4.74
2022-09-10T04:36:10.403Z,4.76
2022-09-10T04:37:10.290Z,4.94
2022-09-10T04:38:10.116Z,4.88
2022-09-10T04:39:10.175Z,5
2022-09-10T04:40:10.670Z,4.89
2022-09-10T04:41:10.230Z,5.09
2022-09-10T04:42:10.174Z,5.1
2022-09-10T04:43:10.206Z,5.15
2022-09-10T04:44:10.270Z,5.13
2022-09-10T04:45:10.474Z,5.11
2022-09-10T04:46:10.400Z,5.21
2022-09-10T04:47:10.262Z,5.23
2022-09-10T04:48:10.293Z,5.25
2022-09-10T04:49:10.399Z,5.16
2022-09-10T04:50:10.318Z,5.36
2022-09-10T04:51:18.291Z,5.3
2022-09-10T04:52:15.192Z,5.16
2022-09-10T04:53:15.392Z,5.2
2022-09-10T04:54:15.098Z,5.4
2022-09-10T04:55:15.218Z,5.29
2022-09-10T04:56:15.419Z,5.28
2022-09-10T04:57:15.092Z,5.33
2022-09-10T04:58:15.118Z,5.26
2022-09-10T04:59:15.219Z,5.24
2022-09-10T05:00:15.554Z,5.22
2022-09-10T05:01:15.220Z,5.27
2022-09-10T05:02:15.460Z,5.48
2022-09-10T05:03:15.242Z,5.44
2022-09-10T05:04:15.239Z,5.43
2022-09-10T05:05:15.524Z,5.6
2022-09-10T05:06:15.255Z,5.53
2022-09-10T05:07:15.284Z,5.55
2022-09-10T05:08:15.287Z,5.61
2022-09-10T05:09:15.921Z,5.66
2022-09-10T05:10:15.399Z,5.63
2022-09-10T05:11:15.374Z,5.62
2022-09-10T05:12:15.359Z,5.61
2022-09-10T05:13:15.367Z,5.74
2022-09-10T05:14:15.476Z,5.7
2022-09-10T05:15:15.372Z,5.73
2022-09-10T05:16:15.524Z,5.75
2022-09-10T05:17:15.386Z,5.78
2022-09-10T05:18:15.806Z,5.82
2022-09-10T05:19:15.446Z,5.76
2022-09-10T05:20:15.607Z,5.79
2022-09-10T05:21:15.500Z,5.87
2022-09-10T05:22:15.489Z,5.91
2022-09-10T05:23:15.540Z,5.84
2022-09-10T05:24:15.742Z,5.86
2022-09-10T05:25:15.715Z,6.08
2022-09-10T05:26:15.563Z,6.16
2022-09-10T05:27:15.597Z,6.11
2022-09-10T05:28:15.732Z,6.03
2022-09-10T05:29:15.737Z,6.05
2022-09-10T05:30:15.629Z,6.09
2022-09-10T05:31:15.870Z,6.19
2022-09-10T05:32:15.661Z,6.39
2022-09-10T05:33:15.993Z,6.48
2022-09-10T05:34:15.707Z,6.63
2022-09-10T05:35:15.728Z,6.54
2022-09-10T05:36:15.802Z,6.43
2022-09-10T05:37:15.953Z,6.41
2022-09-10T05:38:15.768Z,6.57
2022-09-10T05:39:15.790Z,6.76
2022-09-10T05:40:16.016Z,6.91
2022-09-10T05:41:15.866Z,6.94
2022-09-10T05:42:15.982Z,7.08
2022-09-10T05:43:16.149Z,7
2022-09-10T05:44:15.876Z,6.97
2022-09-10T05:45:16.071Z,6.95
2022-09-10T05:46:16.401Z,6.91
2022-09-10T05:47:15.949Z,7.18
2022-09-10T05:48:16.036Z,7.22
2022-09-10T05:49:16.028Z,7.2
2022-09-10T05:50:16.115Z,7.14
2022-09-10T05:51:16.378Z,7.32
2022-09-10T05:52:16.050Z,7.29
2022-09-10T05:53:16.109Z,7.26
2022-09-10T05:54:16.327Z,7.48
2022-09-10T05:55:16.227Z,7.41
2022-09-10T05:56:16.208Z,7.63
2022-09-10T05:57:16.258Z,7.65
2022-09-10T05:58:16.596Z,7.59
2022-09-10T05:59:16.288Z,7.58
2022-09-10T06:00:16.379Z,7.69
2022-09-10T06:01:16.591Z,7.71
2022-09-10T06:02:21.731Z,7.71
2022-09-10T06:03:20.543Z,7.64
2022-09-10T06:04:20.048Z,7.72
2022-09-10T06:05:20.146Z,7.8
2022-09-10T06:06:20.061Z,7.92
2022-09-10T06:07:20.120Z,7.89
2022-09-10T06:08:20.335Z,7.98
2022-09-10T06:09:20.121Z,8.07
2022-09-10T06:10:20.135Z,8.13
2022-09-10T06:11:20.143Z,8.19
2022-09-10T06:12:20.156Z,8.25
2022-09-10T06:13:20.180Z,8.28
2022-09-10T06:14:20.216Z,8.32
2022-09-10T06:15:20.574Z,8.38
2022-09-10T06:16:20.279Z,8.34
2022-09-10T06:17:20.223Z,8.41
2022-09-10T06:18:20.615Z,8.43
2022-09-10T06:19:23.240Z,8.42
2022-09-10T06:20:20.256Z,8.41
2022-09-10T06:21:20.309Z,8.4
2022-09-10T06:22:20.333Z,8.5
2022-09-10T06:23:20.308Z,8.46
2022-09-10T06:24:20.394Z,8.52
2022-09-10T06:25:20.645Z,8.56
2022-09-10T06:26:20.519Z,8.58
2022-09-10T06:27:20.397Z,8.78
2022-09-10T06:28:20.392Z,8.81
2022-09-10T06:29:20.459Z,8.76
2022-09-10T06:30:20.445Z,8.93
2022-09-10T06:31:20.481Z,8.93
2022-09-10T06:32:20.506Z,8.86
2022-09-10T06:33:20.524Z,8.86
2022-09-10T06:34:20.601Z,8.88
2022-09-10T06:35:20.548Z,8.9
2022-09-10T06:36:20.544Z,9
2022-09-10T06:37:20.606Z,9.17
2022-09-10T06:38:20.867Z,9.13
2022-09-10T06:39:20.679Z,9.23
2022-09-10T06:40:20.647Z,9.12
2022-09-10T06:41:20.864Z,9.23
2022-09-10T06:42:20.668Z,9.15
2022-09-10T06:43:23.677Z,9.07
2022-09-10T06:44:20.731Z,9.16
2022-09-10T06:45:20.750Z,9.18
2022-09-10T06:48:41.431Z,9.34
2022-09-10T06:49:24.929Z,9.34
2022-09-10T06:50:24.928Z,9.43
2022-09-10T06:51:24.933Z,9.54
2022-09-10T06:52:24.959Z,9.55
2022-09-10T06:53:26.068Z,9.58
2022-09-10T06:54:25.040Z,9.67
2022-09-10T06:55:24.981Z,9.68
2022-09-10T06:56:25.023Z,9.71
2022-09-10T06:57:25.658Z,9.94
2022-09-10T06:58:25.033Z,9.79
2022-09-10T06:59:25.035Z,9.8
2022-09-10T07:00:25.111Z,9.79
2022-09-10T07:01:25.274Z,9.69
2022-09-10T07:02:25.107Z,9.8
2022-09-10T07:03:25.086Z,9.82
2022-09-10T07:04:25.123Z,9.93
2022-09-10T07:05:25.409Z,9.98
2022-09-10T07:06:26.031Z,9.81
2022-09-10T07:07:25.162Z,9.95
2022-09-10T07:08:25.202Z,10.15
2022-09-10T07:09:25.226Z,10.23
2022-09-10T07:10:25.229Z,10.24
2022-09-10T07:11:26.073Z,10.14
2022-09-10T07:12:25.275Z,10.19
2022-09-10T07:13:25.284Z,10.38
2022-09-10T07:14:25.324Z,10.37
2022-09-10T07:15:25.292Z,10.31
2022-09-10T07:16:26.334Z,10.42
2022-09-10T07:17:27.685Z,10.48
2022-09-10T07:18:27.416Z,10.44
2022-09-10T07:19:27.402Z,10.49
2022-09-10T07:20:27.401Z,10.58
2022-09-10T07:21:27.990Z,10.6
2022-09-10T07:22:27.436Z,10.35
2022-09-10T07:23:27.453Z,10.36
2022-09-10T07:24:27.485Z,10.46
2022-09-10T07:25:27.486Z,10.65
2022-09-10T07:26:28.014Z,10.81
2022-09-10T07:27:27.539Z,10.62
2022-09-10T07:28:27.575Z,10.82
2022-09-10T07:29:27.673Z,10.97
2022-09-10T07:30:28.658Z,10.87
2022-09-10T07:31:28.917Z,10.64
2022-09-10T07:32:27.617Z,10.92
2022-09-10T07:33:27.601Z,10.99
2022-09-10T07:34:27.644Z,10.92
2022-09-10T07:35:27.688Z,10.93
2022-09-10T07:36:28.865Z,11.06
2022-09-10T07:37:27.725Z,11.03
2022-09-10T07:38:27.714Z,11.11
2022-09-10T07:39:27.709Z,11.14
2022-09-10T07:40:27.732Z,11
2022-09-10T07:41:28.031Z,11.09
2022-09-10T07:42:27.822Z,11.32
2022-09-10T07:43:27.926Z,11.21
2022-09-10T07:44:27.803Z,11.23
2022-09-10T07:45:27.849Z,11.12
2022-09-10T07:46:27.843Z,11.35
2022-09-10T07:47:27.897Z,11.49
2022-09-10T07:48:27.858Z,11.11
2022-09-10T07:49:27.900Z,11.23
2022-09-10T07:50:27.882Z,11.3
2022-09-10T07:51:29.431Z,11.45
2022-09-10T07:52:27.924Z,11.4
2022-09-10T07:53:27.940Z,11.5
2022-09-10T07:54:27.923Z,11.7
2022-09-10T07:55:27.921Z,11.83
2022-09-10T07:56:28.109Z,11.55
2022-09-10T07:57:27.981Z,11.65
2022-09-10T07:58:29.372Z,12.02
2022-09-10T07:59:28.009Z,11.95
2022-09-10T08:00:28.140Z,11.75
2022-09-10T08:01:28.091Z,11.73
2022-09-10T08:02:28.286Z,11.76
2022-09-10T08:03:28.717Z,11.91
2022-09-10T08:04:35.896Z,11.83
2022-09-10T08:05:28.366Z,11.8
2022-09-10T08:06:28.159Z,11.81
2022-09-10T08:07:28.342Z,11.76
2022-09-10T08:08:28.807Z,11.76
2022-09-10T08:09:28.234Z,11.76
2022-09-10T08:10:28.226Z,11.8
2022-09-10T08:11:28.253Z,12.04
2022-09-10T08:12:28.248Z,12.1
2022-09-10T08:13:28.319Z,12.17
2022-09-10T08:14:28.265Z,12.27
2022-09-10T08:15:28.283Z,12.13
2022-09-10T08:16:28.296Z,12
2022-09-10T08:17:29.136Z,12.16
2022-09-10T08:18:29.251Z,12.28
2022-09-10T08:19:28.343Z,12.18
2022-09-10T08:20:28.370Z,12.15
2022-09-10T08:21:28.329Z,12.22
2022-09-10T08:22:28.356Z,12.37
2022-09-10T08:23:28.934Z,12.55
2022-09-10T08:24:28.450Z,12.57
2022-09-10T08:25:28.448Z,12.44
2022-09-10T08:26:28.506Z,12.72
2022-09-10T08:27:28.435Z,12.78
2022-09-10T08:28:28.449Z,12.7
2022-09-10T08:29:28.469Z,12.59
2022-09-10T08:30:28.501Z,12.71
2022-09-10T08:31:28.857Z,12.68
2022-09-10T08:32:28.500Z,12.76
2022-09-10T08:33:28.897Z,12.94
2022-09-10T08:34:28.546Z,12.59
2022-09-10T08:35:28.590Z,12.64
2022-09-10T08:36:28.693Z,12.7
2022-09-10T08:37:28.547Z,12.8
2022-09-10T08:38:33.028Z,13.1
2022-09-10T08:39:29.235Z,13.03
2022-09-10T08:40:29.394Z,12.63
2022-09-10T08:42:44.712Z,12.65
2022-09-10T08:45:39.352Z,12.57
2022-09-10T08:46:45.093Z,12.7
2022-09-10T08:48:45.198Z,12.95
2022-09-10T08:49:51.923Z,12.91
2022-09-10T08:50:51.959Z,12.88
2022-09-10T08:51:50.586Z,12.75
2022-09-10T08:52:57.277Z,12.69
2022-09-10T08:53:57.034Z,12.5
2022-09-10T08:56:01.929Z,12.42
2022-09-10T08:57:00.157Z,12.29
2022-09-10T08:58:12.812Z,12.36
2022-09-10T09:00:03.603Z,12.36
2022-09-10T09:01:03.486Z,12.47
2022-09-10T09:02:14.502Z,12.38
2022-09-10T09:07:17.021Z,12.79
2022-09-10T09:08:18.861Z,12.84
2022-09-10T09:09:16.106Z,13.03
2022-09-10T09:15:35.764Z,13.52
2022-09-10T09:16:41.704Z,13.59
2022-09-10T09:17:37.872Z,13.59
2022-09-10T09:24:13.538Z,13.89
2022-09-10T09:24:55.528Z,13.81
2022-09-10T09:26:01.405Z,13.64
2022-09-10T09:26:56.179Z,13.86
2022-09-10T09:27:54.737Z,13.7
2022-09-10T09:28:56.953Z,14
2022-09-10T09:29:56.410Z,13.8
2022-09-10T09:30:54.364Z,14.01
2022-09-10T09:31:57.108Z,13.98
2022-09-10T09:32:55.488Z,13.83
2022-09-10T09:33:56.009Z,13.89
2022-09-10T09:34:54.785Z,13.94
2022-09-10T09:36:01.455Z,13.65
2022-09-10T09:37:01.149Z,13.77
2022-09-10T09:39:03.611Z,14.14
2022-09-10T09:40:07.987Z,14.06
2022-09-10T09:41:12.115Z,14.43
2022-09-10T09:42:17.557Z,14.39
2022-09-10T09:44:16.663Z,14.08
2022-09-10T09:45:23.956Z,13.84
2022-09-10T09:46:17.800Z,13.94
2022-09-10T09:47:15.656Z,14.08
2022-09-10T09:48:16.701Z,13.82
2022-09-10T09:49:16.178Z,13.97
2022-09-10T09:50:16.084Z,13.69
2022-09-10T09:51:17.523Z,13.98
2022-09-10T09:52:23.479Z,14.05
2022-09-10T09:53:23.993Z,13.84
2022-09-10T09:56:30.097Z,13.9
2022-09-10T09:57:26.282Z,14.03
2022-09-10T09:58:27.314Z,13.85
2022-09-10T09:59:27.913Z,14.15
2022-09-10T10:00:34.315Z,13.97
2022-09-10T10:01:31.190Z,14.09
2022-09-10T10:02:30.551Z,13.95
2022-09-10T10:03:31.919Z,14.23
2022-09-10T10:04:30.818Z,14.17
2022-09-10T10:05:30.573Z,14.15
2022-09-10T10:06:32.288Z,14.38
2022-09-10T10:07:31.963Z,14.34
2022-09-10T10:08:38.014Z,14.34
2022-09-10T10:09:37.422Z,14.06
2022-09-10T10:10:34.261Z,14.18
2022-09-10T10:12:41.932Z,14
2022-09-10T10:13:39.563Z,14.04
2022-09-10T10:14:39.586Z,14.36
2022-09-10T10:15:39.402Z,14.46
2022-09-10T10:16:38.158Z,13.96
2022-09-10T10:17:39.408Z,13.93
2022-09-10T10:18:38.239Z,13.81
2022-09-10T10:19:38.900Z,14.13
2022-09-10T10:20:38.853Z,13.85
2022-09-10T10:21:38.210Z,13.76
2022-09-10T10:22:39.595Z,13.92
2022-09-10T10:23:38.551Z,14.16
2022-09-10T10:24:38.260Z,14.05
2022-09-10T10:25:38.737Z,13.98
2022-09-10T10:26:38.286Z,14.15
2022-09-10T10:27:42.162Z,14.27
2022-09-10T10:28:38.457Z,14.37
2022-09-10T10:29:38.472Z,14.23
2022-09-10T10:30:38.395Z,14.37
2022-09-10T10:31:42.894Z,14.31
2022-09-10T10:46:19.494Z,14.84
2022-09-10T10:50:30.639Z,14.53
2022-09-10T10:51:36.276Z,14.61
2022-09-10T10:54:37.822Z,14.68
2022-09-10T10:56:37.726Z,14.75
2022-09-10T10:59:53.622Z,14.53
2022-09-10T11:01:49.891Z,14.59
2022-09-10T11:02:52.634Z,14.72
2022-09-10T11:04:55.019Z,14.67
2022-09-10T11:06:07.586Z,14.47
2022-09-10T11:06:58.300Z,14.55
2022-09-10T11:07:55.521Z,14.52
2022-09-10T11:08:59.012Z,14.49
2022-09-10T11:10:03.713Z,14.54
2022-09-10T11:11:03.641Z,14.81
2022-09-10T11:12:06.497Z,14.76
2022-09-10T11:13:06.008Z,14.79
2022-09-10T11:15:18.818Z,14.68
2022-09-10T11:16:19.102Z,14.77
2022-09-10T11:17:24.137Z,14.79
2022-09-10T11:19:19.074Z,14.7
2022-09-10T11:20:29.982Z,15.08
2022-09-10T11:21:28.592Z,14.82
2022-09-10T11:22:27.663Z,14.86
2022-09-10T11:23:33.733Z,14.84
2022-09-10T11:24:28.792Z,14.9
2022-09-10T11:25:27.598Z,14.81
2022-09-10T11:26:38.056Z,14.81
2022-09-10T11:27:39.900Z,14.85
2022-09-10T11:28:35.933Z,14.75
2022-09-10T11:30:38.828Z,14.56
2022-09-10T11:31:42.620Z,14.68
2022-09-10T11:36:57.569Z,15.08
2022-09-10T11:39:03.930Z,14.99
2022-09-10T11:40:03.274Z,15.08
2022-09-10T11:42:06.512Z,14.9
2022-09-10T11:43:05.494Z,15.04
2022-09-10T11:45:06.953Z,15.36
2022-09-10T11:47:07.977Z,14.96
2022-09-10T11:52:21.686Z,15.17
2022-09-10T11:53:21.216Z,15.18
2022-09-10T11:54:25.782Z,15.08
2022-09-10T11:55:27.270Z,15.22
2022-09-10T12:00:45.126Z,15.02
2022-09-10T12:13:13.659Z,15.18
2022-09-10T12:14:14.897Z,15.25
2022-09-10T12:16:23.037Z,15.52
2022-09-10T12:17:20.280Z,15.37
2022-09-10T12:18:19.317Z,15.05
2022-09-10T12:19:23.043Z,15.03
2022-09-10T12:20:27.519Z,15.35
2022-09-10T12:22:30.513Z,15.06
2022-09-10T12:23:28.338Z,15.18
2022-09-10T12:24:28.882Z,14.79
2022-09-10T12:25:33.658Z,14.96
2022-09-10T12:26:40.177Z,15.09
2022-09-10T12:29:38.773Z,15.04
2022-09-10T12:32:43.045Z,15.13
2022-09-10T12:34:44.239Z,15.02
2022-09-10T12:37:48.124Z,15.55
2022-09-10T12:39:49.479Z,15.61
2022-09-10T12:40:49.397Z,15.64
2022-09-10T12:42:50.529Z,15.57
2022-09-10T12:44:51.383Z,15.63
2022-09-10T12:47:54.550Z,16.02
2022-09-10T12:49:57.559Z,16.15
2022-09-10T12:50:58.363Z,16.23
2022-09-10T12:51:59.714Z,16.57
2022-09-10T13:00:22.336Z,16.03
2022-09-10T13:03:22.833Z,16.45
2022-09-10T13:04:25.490Z,16.61
2022-09-10T13:05:34.252Z,16.55
2022-09-10T13:09:31.302Z,16.31
2022-09-10T13:10:30.226Z,16.04
2022-09-10T13:11:34.090Z,16.39
2022-09-10T13:12:30.868Z,16.17
2022-09-10T13:14:35.306Z,16.3
2022-09-10T13:15:38.134Z,16.26
2022-09-10T13:16:39.857Z,15.99
2022-09-10T13:17:37.285Z,15.96
2022-09-10T13:18:36.841Z,15.9
2022-09-10T13:20:37.575Z,15.75
2022-09-10T13:23:45.971Z,15.7
2022-09-10T13:25:47.682Z,15.39
2022-09-10T13:26:48.065Z,15.36
2022-09-10T13:27:47.107Z,15.35
2022-09-10T13:31:59.363Z,14.72
2022-09-10T13:32:58.483Z,14.75
2022-09-10T13:36:05.212Z,14.86
2022-09-10T13:45:26.288Z,14.81
2022-09-10T13:47:33.737Z,14.55
2022-09-10T13:50:44.959Z,14.69
2022-09-10T13:51:49.153Z,14.75
2022-09-10T13:52:43.330Z,14.86
2022-09-10T13:53:42.310Z,14.9
2022-09-10T13:54:47.324Z,14.65
2022-09-10T13:56:46.716Z,14.84
2022-09-10T13:57:48.198Z,14.75
2022-09-10T13:58:50.400Z,14.65
2022-09-10T13:59:51.392Z,14.69
2022-09-10T14:01:54.826Z,14.67
2022-09-10T14:02:53.104Z,14.78
2022-09-10T14:03:51.260Z,14.66
2022-09-10T14:04:51.340Z,14.73
2022-09-10T14:06:56.723Z,14.64
2022-09-10T14:07:55.689Z,14.56
2022-09-10T14:08:57.049Z,14.36
2022-09-10T14:09:55.964Z,14.35
2022-09-10T14:11:55.236Z,14.43
2022-09-10T14:12:54.789Z,14.42
2022-09-10T14:13:59.133Z,14.32
2022-09-10T14:14:57.231Z,14.35
2022-09-10T14:15:57.261Z,14.34
2022-09-10T14:17:59.167Z,14.34
2022-09-10T14:19:01.051Z,14.31
2022-09-10T14:20:00.138Z,14.25
2022-09-10T14:20:59.554Z,14.3
2022-09-10T14:21:59.106Z,14.16
2022-09-10T14:23:03.279Z,14.21
2022-09-10T14:23:59.509Z,14.26
2022-09-10T14:25:00.185Z,14.3
2022-09-10T14:38:35.647Z,14.1
2022-09-10T14:39:33.399Z,14.03
2022-09-10T14:40:37.207Z,14.05
2022-09-10T14:41:34.526Z,14.03
2022-09-10T14:42:34.951Z,13.98
2022-09-10T14:43:37.366Z,14.02
2022-09-10T14:47:50.059Z,13.91
2022-09-10T14:49:41.976Z,13.96
2022-09-10T14:50:41.876Z,13.94
2022-09-10T14:51:41.875Z,14.02
2022-09-10T14:52:41.916Z,13.98
2022-09-10T14:53:42.393Z,13.99
2022-09-10T14:54:41.920Z,13.99
2022-09-10T14:55:41.973Z,13.96
2022-09-10T14:56:43.436Z,13.91
2022-09-10T14:57:42.059Z,13.89
2022-09-10T14:58:42.008Z,13.9
2022-09-10T14:59:43.374Z,13.87
2022-09-10T15:00:42.035Z,13.88
2022-09-10T15:01:43.493Z,13.87
2022-09-10T15:02:42.104Z,13.77
2022-09-10T15:03:42.099Z,13.82
2022-09-10T15:04:42.232Z,13.73
2022-09-10T15:05:42.101Z,13.73
2022-09-10T15:06:42.478Z,13.76
2022-09-10T15:07:42.143Z,13.73
2022-09-10T15:08:42.387Z,13.69
2022-09-10T15:09:42.162Z,13.77
2022-09-10T15:10:42.193Z,13.74
2022-09-10T15:12:46.961Z,13.72
2022-09-10T15:13:45.747Z,13.66
2022-09-10T15:14:45.094Z,13.58
2022-09-10T15:15:45.433Z,13.63
2022-09-10T15:16:44.980Z,13.47
2022-09-10T15:17:44.958Z,13.53
2022-09-10T15:18:44.957Z,13.41
2022-09-10T15:19:45.392Z,13.36
2022-09-10T15:20:45.007Z,13.4
2022-09-10T15:21:45.485Z,13.44
2022-09-10T15:22:45.069Z,13.49
2022-09-10T15:23:45.095Z,13.41
2022-09-10T15:25:08.017Z,13.37
2022-09-10T15:25:48.650Z,13.38
2022-09-10T15:26:46.552Z,13.38
2022-09-10T15:27:46.249Z,13.35
2022-09-10T15:28:46.267Z,13.35
2022-09-10T15:29:46.317Z,13.36
2022-09-10T15:30:46.398Z,13.35
2022-09-10T15:31:46.347Z,13.28
2022-09-10T15:32:46.349Z,13.28
2022-09-10T15:33:46.361Z,13.18
2022-09-10T15:34:46.358Z,13.19
2022-09-10T15:35:46.482Z,13
2022-09-10T15:36:46.410Z,13.01
2022-09-10T15:37:46.416Z,13.03
2022-09-10T15:38:46.427Z,13.03
2022-09-10T15:39:46.510Z,13.02
2022-09-10T15:40:47.992Z,13
2022-09-10T15:41:46.814Z,12.98
2022-09-10T15:42:46.514Z,13.03
2022-09-10T15:43:46.736Z,13
2022-09-10T15:44:46.534Z,12.83
2022-09-10T15:45:46.554Z,12.83
2022-09-10T15:46:46.585Z,12.83
2022-09-10T15:47:46.571Z,12.79
2022-09-10T15:48:46.579Z,12.81
2022-09-10T15:49:46.594Z,12.84
2022-09-10T15:50:46.608Z,12.86
2022-09-10T15:51:47.647Z,12.79
2022-09-10T15:52:46.656Z,12.74
2022-09-10T15:53:47.473Z,12.71
2022-09-10T15:54:46.674Z,12.5
2022-09-10T15:55:46.703Z,12.48
2022-09-10T15:56:46.753Z,12.45
2022-09-10T15:57:49.752Z,12.31
2022-09-10T15:58:51.244Z,12.34
2022-09-10T15:59:47.428Z,12.3
2022-09-10T16:00:47.435Z,12.35
2022-09-10T16:01:47.507Z,12.38
2022-09-10T16:03:53.631Z,12.28
2022-09-10T16:04:49.803Z,12.25
2022-09-10T16:05:49.829Z,12.18
2022-09-10T16:06:49.868Z,12.1
2022-09-10T16:07:49.861Z,11.94
2022-09-10T16:09:51.400Z,11.94
2022-09-10T16:10:51.432Z,11.91
2022-09-10T16:11:51.434Z,11.94
2022-09-10T16:12:51.816Z,11.88
2022-09-10T16:13:51.473Z,11.82
2022-09-10T16:14:51.691Z,11.76
2022-09-10T16:16:52.575Z,11.66
2022-09-10T16:17:52.594Z,11.57
2022-09-10T16:18:53.043Z,11.58
2022-09-10T16:19:52.681Z,11.58
2022-09-10T16:20:52.649Z,11.48
2022-09-10T16:21:52.679Z,11.43
2022-09-10T16:22:52.676Z,11.4
2022-09-10T16:23:54.289Z,11.34
2022-09-10T16:24:52.890Z,11.34
2022-09-10T16:25:53.361Z,11.38
2022-09-10T16:26:52.737Z,11.36
2022-09-10T16:27:52.784Z,11.29